createdAt,value
2023-03-30T00:02:44.678Z,11.40
2023-03-30T00:06:26.960Z,11.40
2023-03-30T00:10:11.433Z,11.30
2023-03-30T00:13:53.738Z,11.30
2023-03-30T00:17:36.723Z,11.20
2023-03-30T00:21:20.802Z,11.20
2023-03-30T00:25:03.109Z,11.10
2023-03-30T00:28:45.567Z,11.10
2023-03-30T00:32:27.690Z,11.00
2023-03-30T00:36:10.038Z,11.00
2023-03-30T00:39:53.534Z,10.90
2023-03-30T00:43:35.664Z,10.80
2023-03-30T00:47:18.131Z,10.70
2023-03-30T00:51:05.105Z,10.70
2023-03-30T00:54:48.016Z,10.70
2023-03-30T00:58:31.426Z,10.70
2023-03-30T01:02:13.585Z,10.70
2023-03-30T01:05:59.105Z,10.60
2023-03-30T01:09:42.965Z,10.60
2023-03-30T01:13:24.994Z,10.60
2023-03-30T01:17:18.793Z,10.60
2023-03-30T01:21:22.108Z,10.60
2023-03-30T01:25:18.548Z,10.60
2023-03-30T01:29:16.524Z,10.60
2023-03-30T01:33:13.484Z,10.60
2023-03-30T01:37:39.340Z,10.60
2023-03-30T01:41:35.013Z,10.60
2023-03-30T01:45:22.994Z,10.60
2023-03-30T01:49:23.284Z,10.60
2023-03-30T01:53:31.393Z,10.60
2023-03-30T01:57:20.145Z,10.60
2023-03-30T02:01:04.448Z,10.60
2023-03-30T02:04:48.757Z,10.60
2023-03-30T02:08:33.114Z,10.60
2023-03-30T02:12:15.536Z,10.60
2023-03-30T02:16:03.331Z,10.60
2023-03-30T02:19:46.614Z,10.60
2023-03-30T02:23:34.185Z,10.70
2023-03-30T02:27:16.932Z,10.60
2023-03-30T02:30:59.084Z,10.70
2023-03-30T02:34:55.312Z,10.60
2023-03-30T02:39:05.286Z,10.60
2023-03-30T02:43:00.221Z,10.60
2023-03-30T02:47:06.894Z,10.60
2023-03-30T02:51:16.550Z,10.50
2023-03-30T02:55:02.793Z,10.50
2023-03-30T02:58:44.762Z,10.50
2023-03-30T03:02:40.422Z,10.50
2023-03-30T03:06:23.953Z,10.40
2023-03-30T03:10:06.946Z,10.50
2023-03-30T03:13:50.008Z,10.50
2023-03-30T03:17:35.046Z,10.40
2023-03-30T03:21:17.208Z,10.50
2023-03-30T03:24:59.906Z,10.40
2023-03-30T03:28:41.972Z,10.40
2023-03-30T03:32:24.099Z,10.40
2023-03-30T03:36:06.719Z,10.30
2023-03-30T03:39:48.776Z,10.40
2023-03-30T03:43:31.283Z,10.30
2023-03-30T03:47:16.346Z,10.30
2023-03-30T03:50:59.470Z,10.20
2023-03-30T03:54:41.644Z,10.20
2023-03-30T03:58:24.188Z,10.10
2023-03-30T04:02:06.766Z,10.00
2023-03-30T04:05:49.779Z,9.90
2023-03-30T04:09:31.871Z,9.90
2023-03-30T04:13:13.877Z,9.90
2023-03-30T04:16:58.065Z,9.90
2023-03-30T04:20:40.154Z,9.90
2023-03-30T04:24:22.743Z,9.90
2023-03-30T04:28:05.327Z,10.00
2023-03-30T04:31:48.495Z,10.00
2023-03-30T04:35:33.238Z,10.10
2023-03-30T04:39:18.421Z,10.10
2023-03-30T04:43:04.052Z,10.10
2023-03-30T04:46:46.278Z,10.20
2023-03-30T04:50:28.314Z,10.20
2023-03-30T04:54:10.480Z,10.20
2023-03-30T04:57:52.505Z,10.20
2023-03-30T05:01:34.593Z,10.30
2023-03-30T05:05:17.550Z,10.30
2023-03-30T05:08:59.760Z,10.30
2023-03-30T05:12:41.920Z,10.30
2023-03-30T05:16:24.097Z,10.20
2023-03-30T05:20:10.261Z,10.20
2023-03-30T05:23:53.015Z,10.20
2023-03-30T05:27:35.016Z,10.10
2023-03-30T05:31:17.398Z,10.10
2023-03-30T05:34:59.522Z,10.10
2023-03-30T05:38:41.860Z,10.00
2023-03-30T05:42:24.054Z,10.00
2023-03-30T05:46:07.681Z,10.00
2023-03-30T05:49:49.712Z,10.00
2023-03-30T05:53:31.783Z,10.00
2023-03-30T05:57:14.211Z,10.00
2023-03-30T06:00:59.878Z,10.00
2023-03-30T06:04:42.114Z,10.10
2023-03-30T06:08:24.475Z,10.10
2023-03-30T06:12:06.857Z,10.10
2023-03-30T06:15:49.287Z,10.10
2023-03-30T06:19:31.352Z,10.10
2023-03-30T06:23:13.516Z,10.10
2023-03-30T06:26:56.181Z,10.10
2023-03-30T06:30:39.220Z,10.10
2023-03-30T06:34:21.294Z,10.20
2023-03-30T06:38:03.679Z,10.20
2023-03-30T06:41:45.796Z,10.30
2023-03-30T06:45:28.034Z,10.30
2023-03-30T06:49:13.123Z,10.30
2023-03-30T06:52:55.245Z,10.30
2023-03-30T06:56:37.341Z,10.30
2023-03-30T07:00:20.086Z,10.40
2023-03-30T07:04:02.813Z,10.50
2023-03-30T07:07:46.553Z,10.50
2023-03-30T07:11:28.783Z,10.60
2023-03-30T07:15:11.353Z,10.70
2023-03-30T07:18:53.373Z,10.80
2023-03-30T07:22:37.423Z,11.00
2023-03-30T07:26:19.541Z,11.20
2023-03-30T07:30:10.342Z,11.30
2023-03-30T07:34:00.711Z,11.40
2023-03-30T07:37:43.180Z,11.60
2023-03-30T07:41:25.283Z,11.80
2023-03-30T07:45:08.340Z,11.90
2023-03-30T07:48:50.396Z,11.90
2023-03-30T07:52:32.999Z,11.90
2023-03-30T07:56:15.333Z,11.90
2023-03-30T07:59:57.434Z,11.80
2023-03-30T08:03:39.806Z,11.70
2023-03-30T08:07:21.998Z,11.60
2023-03-30T08:11:04.334Z,11.70
2023-03-30T08:14:46.562Z,12.00
2023-03-30T08:18:29.230Z,12.30
2023-03-30T08:22:11.515Z,12.60
2023-03-30T08:25:57.495Z,12.90
2023-03-30T08:29:39.640Z,13.10
2023-03-30T08:33:24.402Z,13.40
2023-03-30T08:37:06.628Z,13.60
2023-03-30T08:40:50.210Z,14.00
2023-03-30T08:44:39.393Z,14.20
2023-03-30T08:48:24.533Z,14.30
2023-03-30T08:52:08.226Z,14.10
2023-03-30T08:56:04.281Z,14.00
2023-03-30T09:00:04.370Z,14.10
2023-03-30T09:04:00.152Z,14.10
2023-03-30T09:08:03.856Z,14.00
2023-03-30T09:11:49.769Z,14.00
2023-03-30T09:15:53.404Z,13.90
2023-03-30T09:19:50.896Z,13.50
2023-03-30T09:23:34.146Z,13.10
2023-03-30T09:27:25.450Z,12.80
2023-03-30T09:31:19.922Z,12.70
2023-03-30T09:35:16.182Z,12.60
2023-03-30T09:38:58.183Z,12.70
2023-03-30T09:43:01.678Z,12.90
2023-03-30T09:46:43.759Z,13.30
2023-03-30T09:50:29.598Z,13.90
2023-03-30T09:54:15.265Z,14.30
2023-03-30T09:58:18.717Z,14.40
2023-03-30T10:02:18.173Z,14.50
2023-03-30T10:06:16.090Z,14.50
2023-03-30T10:10:00.886Z,14.30
2023-03-30T10:13:43.983Z,14.20
2023-03-30T10:17:27.274Z,14.00
2023-03-30T10:21:15.562Z,14.00
2023-03-30T10:24:57.672Z,14.60
2023-03-30T10:28:41.395Z,15.50
2023-03-30T10:32:32.154Z,16.70
2023-03-30T10:36:17.310Z,16.50
2023-03-30T10:40:02.125Z,16.00
2023-03-30T10:43:45.336Z,15.40
2023-03-30T10:47:30.540Z,14.90
2023-03-30T10:51:40.300Z,14.60
2023-03-30T10:55:26.286Z,14.40
2023-03-30T10:59:32.133Z,14.20
2023-03-30T11:03:29.482Z,14.20
2023-03-30T11:07:33.703Z,14.10
2023-03-30T11:11:23.135Z,13.90
2023-03-30T11:15:22.070Z,13.70
2023-03-30T11:19:13.074Z,13.60
2023-03-30T11:23:09.083Z,14.10
2023-03-30T11:27:13.328Z,15.50
2023-03-30T11:31:03.327Z,16.20
2023-03-30T11:35:21.043Z,17.30
2023-03-30T11:39:05.724Z,18.30
2023-03-30T11:42:49.071Z,18.70
2023-03-30T11:46:43.207Z,18.30
2023-03-30T11:51:03.471Z,17.50
2023-03-30T11:55:11.675Z,16.60
2023-03-30T11:59:06.967Z,15.70
2023-03-30T12:03:08.285Z,14.80
2023-03-30T12:07:01.928Z,14.40
2023-03-30T12:10:48.618Z,14.80
2023-03-30T12:14:30.516Z,15.00
2023-03-30T12:18:19.231Z,14.60
2023-03-30T12:22:24.341Z,14.10
2023-03-30T12:26:42.549Z,13.50
2023-03-30T12:30:30.917Z,12.90
2023-03-30T12:34:12.937Z,12.30
2023-03-30T12:37:57.398Z,12.10
2023-03-30T12:41:48.716Z,12.60
2023-03-30T12:45:33.395Z,12.60
2023-03-30T12:49:29.993Z,12.40
2023-03-30T12:53:20.997Z,12.20
2023-03-30T12:57:17.528Z,12.10
2023-03-30T13:01:25.731Z,12.00
2023-03-30T13:05:41.385Z,12.00
2023-03-30T13:09:26.393Z,12.10
2023-03-30T13:13:37.404Z,12.10
2023-03-30T13:17:24.116Z,12.10
2023-03-30T13:21:16.620Z,12.10
2023-03-30T13:25:18.926Z,12.70
2023-03-30T13:29:08.620Z,13.50
2023-03-30T13:32:59.878Z,14.40
2023-03-30T13:37:00.943Z,15.10
2023-03-30T13:41:05.432Z,15.50
2023-03-30T13:44:58.037Z,15.30
2023-03-30T13:49:24.687Z,14.70
2023-03-30T13:53:11.297Z,14.10
2023-03-30T13:57:01.548Z,13.70
2023-03-30T14:00:57.309Z,13.30
2023-03-30T14:04:44.647Z,13.00
2023-03-30T14:08:26.590Z,13.00
2023-03-30T14:12:09.192Z,12.90
2023-03-30T14:15:51.583Z,12.90
2023-03-30T14:19:36.514Z,13.00
2023-03-30T14:23:27.858Z,13.10
2023-03-30T14:27:16.386Z,13.10
2023-03-30T14:31:08.100Z,13.20
2023-03-30T14:34:52.504Z,13.50
2023-03-30T14:38:41.448Z,14.20
2023-03-30T14:42:31.485Z,14.60
2023-03-30T14:46:13.957Z,14.50
2023-03-30T14:50:00.064Z,14.30
2023-03-30T14:53:42.797Z,14.20
2023-03-30T14:57:26.655Z,14.40
2023-03-30T15:01:14.327Z,14.70
2023-03-30T15:04:58.050Z,15.10
2023-03-30T15:08:41.045Z,15.20
2023-03-30T15:12:31.750Z,15.20
2023-03-30T15:16:19.957Z,15.20
2023-03-30T15:20:07.253Z,15.10
2023-03-30T15:23:51.057Z,15.20
2023-03-30T15:27:36.504Z,15.40
2023-03-30T15:31:19.814Z,15.30
2023-03-30T15:35:14.688Z,15.00
2023-03-30T15:39:01.384Z,14.70
2023-03-30T15:42:44.463Z,14.50
2023-03-30T15:46:28.317Z,14.40
2023-03-30T15:50:14.677Z,14.40
2023-03-30T15:54:01.580Z,14.50
2023-03-30T15:57:47.766Z,14.50
2023-03-30T16:01:49.477Z,14.60
2023-03-30T16:05:34.094Z,14.60
2023-03-30T16:09:17.117Z,14.50
2023-03-30T16:13:00.962Z,14.30
2023-03-30T16:16:43.669Z,14.10
2023-03-30T16:20:29.349Z,13.90
2023-03-30T16:24:14.567Z,13.80
2023-03-30T16:27:56.985Z,13.60
2023-03-30T16:31:38.954Z,13.50
2023-03-30T16:35:21.023Z,13.50
2023-03-30T16:39:05.789Z,13.30
2023-03-30T16:42:47.805Z,13.30
2023-03-30T16:46:29.857Z,13.20
2023-03-30T16:50:25.263Z,13.20
2023-03-30T16:54:13.757Z,13.10
2023-03-30T16:58:01.888Z,13.10
2023-03-30T17:01:44.093Z,13.00
2023-03-30T17:05:26.314Z,13.00
2023-03-30T17:09:16.429Z,13.00
2023-03-30T17:12:58.502Z,12.90
2023-03-30T17:16:40.920Z,12.90
2023-03-30T17:20:27.464Z,12.90
2023-03-30T17:24:10.674Z,12.80
2023-03-30T17:27:56.939Z,12.70
2023-03-30T17:31:39.320Z,12.60
2023-03-30T17:35:22.265Z,12.50
2023-03-30T17:39:05.299Z,12.50
2023-03-30T17:42:47.947Z,12.40
2023-03-30T17:46:30.200Z,12.30
2023-03-30T17:50:34.350Z,12.30
2023-03-30T17:54:16.499Z,12.30
2023-03-30T17:57:59.643Z,12.30
2023-03-30T18:01:41.713Z,12.20
2023-03-30T18:05:26.906Z,12.20
2023-03-30T18:09:16.511Z,12.20
2023-03-30T18:12:58.683Z,12.20
2023-03-30T18:16:43.609Z,12.00
2023-03-30T18:20:34.913Z,11.90
2023-03-30T18:24:16.936Z,11.90
2023-03-30T18:27:59.618Z,11.90
2023-03-30T18:31:41.713Z,11.90
2023-03-30T18:35:27.505Z,11.90
2023-03-30T18:39:19.961Z,11.90
2023-03-30T18:43:02.119Z,11.90
2023-03-30T18:46:50.059Z,12.00
2023-03-30T18:50:39.062Z,11.90
2023-03-30T18:54:21.226Z,11.90
2023-03-30T18:58:06.595Z,11.90
2023-03-30T19:01:49.809Z,12.00
2023-03-30T19:05:33.825Z,12.00
2023-03-30T19:09:16.038Z,11.90
2023-03-30T19:12:58.447Z,11.90
2023-03-30T19:16:40.640Z,11.70
2023-03-30T19:20:27.300Z,11.60
2023-03-30T19:24:10.014Z,11.60
2023-03-30T19:28:02.577Z,11.50
2023-03-30T19:31:45.635Z,11.40
2023-03-30T19:35:28.359Z,11.30
2023-03-30T19:39:10.644Z,11.30
2023-03-30T19:42:52.876Z,11.30
2023-03-30T19:46:34.971Z,11.30
2023-03-30T19:50:19.503Z,11.20
2023-03-30T19:54:01.496Z,11.20
2023-03-30T19:57:44.078Z,11.20
2023-03-30T20:01:26.298Z,11.10
2023-03-30T20:05:13.061Z,11.10
2023-03-30T20:08:55.202Z,11.00
2023-03-30T20:12:37.381Z,10.90
2023-03-30T20:16:20.759Z,10.80
2023-03-30T20:20:07.266Z,10.70
2023-03-30T20:23:49.838Z,10.60
2023-03-30T20:27:33.779Z,10.60
2023-03-30T20:31:16.706Z,10.60
2023-03-30T20:34:58.753Z,10.60
2023-03-30T20:38:41.781Z,10.60
2023-03-30T20:42:26.383Z,10.50
2023-03-30T20:46:09.827Z,10.50
2023-03-30T20:49:55.847Z,10.50
2023-03-30T20:53:38.229Z,10.50
2023-03-30T20:57:21.535Z,10.50
2023-03-30T21:01:16.691Z,10.50
2023-03-30T21:04:58.744Z,10.40
2023-03-30T21:08:42.126Z,10.40
2023-03-30T21:12:24.144Z,10.40
2023-03-30T21:16:07.592Z,10.40
2023-03-30T21:19:49.767Z,10.40
2023-03-30T21:23:32.384Z,10.40
2023-03-30T21:27:14.524Z,10.40
2023-03-30T21:30:57.840Z,10.40
2023-03-30T21:34:39.912Z,10.50
2023-03-30T21:38:24.116Z,10.50
2023-03-30T21:42:06.752Z,10.50
2023-03-30T21:45:57.093Z,10.50
2023-03-30T21:49:40.131Z,10.50
2023-03-30T21:53:22.117Z,10.60
2023-03-30T21:57:05.848Z,10.60
2023-03-30T22:00:53.446Z,10.60
2023-03-30T22:04:44.426Z,10.60
2023-03-30T22:08:26.812Z,10.60
2023-03-30T22:12:08.955Z,10.60
2023-03-30T22:16:03.188Z,10.70
2023-03-30T22:19:45.454Z,10.60
2023-03-30T22:23:27.962Z,10.60
2023-03-30T22:27:10.021Z,10.50
2023-03-30T22:30:52.414Z,10.50
2023-03-30T22:34:34.803Z,10.50
2023-03-30T22:38:16.832Z,10.50
2023-03-30T22:41:58.895Z,10.50
2023-03-30T22:45:41.962Z,10.50
2023-03-30T22:49:25.016Z,10.50
2023-03-30T22:53:07.071Z,10.50
2023-03-30T22:56:49.348Z,10.50
2023-03-30T23:00:31.505Z,10.50
2023-03-30T23:04:13.563Z,10.50
2023-03-30T23:07:55.545Z,10.50
2023-03-30T23:11:37.601Z,10.50
2023-03-30T23:15:22.278Z,10.50
2023-03-30T23:19:05.974Z,10.50
2023-03-30T23:22:49.606Z,10.60
2023-03-30T23:26:31.678Z,10.60
2023-03-30T23:30:14.062Z,10.50
2023-03-30T23:33:56.767Z,10.50
2023-03-30T23:37:38.796Z,10.50
2023-03-30T23:41:22.232Z,10.50
2023-03-30T23:45:04.599Z,10.50
2023-03-30T23:48:46.688Z,10.50
2023-03-30T23:52:28.676Z,10.50
2023-03-30T23:56:17.759Z,10.50
2023-03-30T23:59:59.876Z,10.50
